createdAt,value
2019-04-11T00:02:08.848Z,102492.62
2019-04-11T00:04:37.997Z,102493.88
2019-04-11T00:07:07.866Z,102497.39
2019-04-11T00:09:36.938Z,102494.37
2019-04-11T00:12:06.461Z,102502.03
2019-04-11T00:14:35.866Z,102507.02
2019-04-11T00:17:05.793Z,102502.89
2019-04-11T00:19:35.807Z,102508.28
2019-04-11T00:22:05.686Z,102502.08
2019-04-11T00:24:34.784Z,102501.53
2019-04-11T00:27:04.577Z,102508.73
2019-04-11T00:29:34.428Z,102510.14
2019-04-11T00:32:06.554Z,102516.12
2019-04-11T00:34:35.212Z,102512.61
2019-04-11T00:37:05.145Z,102523.42
2019-04-11T00:39:35.325Z,102527.61
2019-04-11T00:42:04.411Z,102524.59
2019-04-11T00:44:33.463Z,102517.52
2019-04-11T00:47:02.684Z,102521.03
2019-04-11T00:49:32.568Z,102524.05
2019-04-11T00:52:02.667Z,102532.88
2019-04-11T00:54:33.046Z,102530.31
2019-04-11T00:57:02.526Z,102538.19
2019-04-11T00:59:32.213Z,102534.50
2019-04-11T01:02:01.507Z,102532.69
2019-04-11T01:04:30.674Z,102534.36
2019-04-11T01:07:00.713Z,102528.82
2019-04-11T01:09:30.544Z,102535.22
2019-04-11T01:12:00.471Z,102533.14
2019-04-11T01:14:29.963Z,102540.70
2019-04-11T01:16:59.101Z,102527.79
2019-04-11T01:19:28.965Z,102534.00
2019-04-11T01:21:59.503Z,102519.28
2019-04-11T01:24:28.489Z,102527.30
2019-04-11T01:26:57.542Z,102522.61
2019-04-11T01:29:27.313Z,102528.20
2019-04-11T01:32:00.274Z,102533.05
2019-04-11T01:34:29.376Z,102536.55
2019-04-11T01:36:59.530Z,102542.05
2019-04-11T01:39:45.330Z,102536.59
2019-04-11T01:42:16.159Z,102532.41
2019-04-11T01:44:46.047Z,102539.02
2019-04-11T01:47:23.580Z,102531.08
2019-04-11T01:49:52.666Z,102531.66
2019-04-11T01:52:22.417Z,102526.20
2019-04-11T01:54:52.164Z,102538.87
2019-04-11T01:57:22.151Z,102525.88
2019-04-11T01:59:51.369Z,102528.08
2019-04-11T02:02:37.515Z,102537.45
2019-04-11T02:05:27.201Z,102535.42
2019-04-11T02:07:56.358Z,102537.05
2019-04-11T02:10:26.502Z,102541.03
2019-04-11T02:12:55.653Z,102540.42
2019-04-11T02:15:25.581Z,102542.59
2019-04-11T02:17:55.046Z,102537.33
2019-04-11T02:20:24.954Z,102537.21
2019-04-11T02:23:23.322Z,102533.02
2019-04-11T02:26:03.381Z,102546.70
2019-04-11T02:28:32.881Z,102544.42
2019-04-11T02:31:02.781Z,102541.97
2019-04-11T02:33:33.069Z,102552.35
2019-04-11T02:36:03.166Z,102548.97
2019-04-11T02:38:34.731Z,102553.25
2019-04-11T02:41:05.933Z,102561.38
2019-04-11T02:43:36.435Z,102563.66
2019-04-11T02:46:17.601Z,102565.41
2019-04-11T02:48:37.692Z,102563.13
2019-04-11T02:51:09.864Z,102568.11
2019-04-11T02:53:38.943Z,102560.83
2019-04-11T02:56:11.115Z,102560.62
2019-04-11T02:58:40.111Z,102555.82
2019-04-11T03:01:12.281Z,102561.80
2019-04-11T03:03:42.285Z,102558.14
2019-04-11T03:06:11.713Z,102564.45
2019-04-11T03:08:41.593Z,102567.27
2019-04-11T03:11:11.819Z,102563.96
2019-04-11T03:13:42.157Z,102571.95
2019-04-11T03:16:27.826Z,102578.00
2019-04-11T03:18:58.943Z,102578.97
2019-04-11T03:21:20.191Z,102573.26
2019-04-11T03:23:44.724Z,102577.24
2019-04-11T03:26:14.258Z,102575.86
2019-04-11T03:28:47.424Z,102577.65
2019-04-11T03:31:58.254Z,102581.66
2019-04-11T03:39:11.977Z,102570.20
2019-04-11T03:41:32.912Z,102575.23
2019-04-11T03:43:59.114Z,102573.52
2019-04-11T03:46:40.166Z,102571.48
2019-04-11T03:49:01.249Z,102572.81
2019-04-11T03:51:22.828Z,102580.35
2019-04-11T03:53:53.613Z,102577.50
2019-04-11T03:56:24.434Z,102581.32
2019-04-11T03:58:55.338Z,102578.55
2019-04-11T04:01:26.748Z,102583.67
2019-04-11T04:03:56.227Z,102585.08
2019-04-11T04:06:25.742Z,102592.07
2019-04-11T04:08:55.597Z,102588.73
2019-04-11T04:11:27.718Z,102594.16
2019-04-11T04:14:17.695Z,102596.69
2019-04-11T04:16:57.378Z,102596.88
2019-04-11T04:19:43.335Z,102606.05
2019-04-11T04:22:20.743Z,102610.44
2019-04-11T04:24:51.714Z,102614.23
2019-04-11T04:27:23.193Z,102604.56
2019-04-11T04:29:57.023Z,102620.22
2019-04-11T04:32:24.836Z,102611.41
2019-04-11T04:34:53.710Z,102615.42
2019-04-11T04:37:24.747Z,102609.73
2019-04-11T04:40:13.194Z,102622.78
2019-04-11T04:42:32.217Z,102618.47
2019-04-11T04:44:56.022Z,102625.19
2019-04-11T04:47:38.548Z,102623.20
2019-04-11T04:49:57.090Z,102622.31
2019-04-11T04:52:27.922Z,102625.37
2019-04-11T04:54:59.214Z,102630.42
2019-04-11T04:57:29.744Z,102627.08
2019-04-11T04:59:59.895Z,102631.20
2019-04-11T05:02:30.547Z,102633.77
2019-04-11T05:05:01.357Z,102630.50
2019-04-11T05:07:34.481Z,102637.71
2019-04-11T05:10:03.224Z,102627.56
2019-04-11T05:12:32.254Z,102630.36
2019-04-11T05:15:01.584Z,102636.27
2019-04-11T05:17:32.212Z,102638.14
2019-04-11T05:20:02.690Z,102644.05
2019-04-11T05:22:33.121Z,102642.86
2019-04-11T05:25:03.895Z,102643.01
2019-04-11T05:27:33.575Z,102646.80
2019-04-11T05:30:02.990Z,102651.94
2019-04-11T05:32:33.368Z,102652.83
2019-04-11T05:35:02.853Z,102663.31
2019-04-11T05:37:33.254Z,102660.52
2019-04-11T05:40:03.099Z,102667.73
2019-04-11T05:42:33.306Z,102668.38
2019-04-11T05:45:03.261Z,102667.33
2019-04-11T05:47:32.615Z,102666.95
2019-04-11T05:50:24.244Z,102671.12
2019-04-11T05:52:54.513Z,102669.55
2019-04-11T05:55:24.252Z,102667.11
2019-04-11T05:57:54.363Z,102667.29
2019-04-11T06:00:34.737Z,102673.31
2019-04-11T06:03:05.819Z,102674.28
2019-04-11T06:05:56.475Z,102674.06
2019-04-11T06:08:28.539Z,102674.69
2019-04-11T06:11:19.317Z,102676.98
2019-04-11T06:13:59.558Z,102687.25
2019-04-11T06:16:38.892Z,102687.73
2019-04-11T06:19:24.973Z,102687.36
2019-04-11T06:21:58.172Z,102684.86
2019-04-11T06:24:46.567Z,102689.95
2019-04-11T06:27:22.663Z,102697.95
2019-04-11T06:30:18.579Z,102708.27
2019-04-11T06:33:05.442Z,102707.72
2019-04-11T06:35:42.582Z,102707.69
2019-04-11T06:38:40.748Z,102711.89
2019-04-11T06:41:22.130Z,102714.37
2019-04-11T06:44:10.185Z,102712.89
2019-04-11T06:47:00.503Z,102715.27
2019-04-11T06:49:36.395Z,102716.22
2019-04-11T06:52:06.722Z,102716.30
2019-04-11T06:54:58.204Z,102721.80
2019-04-11T06:57:28.516Z,102717.87
2019-04-11T06:59:58.751Z,102722.42
2019-04-11T07:02:29.888Z,102718.58
2019-04-11T07:05:02.538Z,102727.45
2019-04-11T07:07:34.677Z,102725.48
2019-04-11T07:10:06.237Z,102732.89
2019-04-11T07:12:44.667Z,102738.59
2019-04-11T07:15:19.202Z,102745.08
2019-04-11T07:18:07.491Z,102745.98
2019-04-11T07:21:02.735Z,102755.07
2019-04-11T07:23:51.391Z,102745.92
2019-04-11T07:26:48.497Z,102753.14
2019-04-11T07:29:35.744Z,102753.84
2019-04-11T07:32:18.276Z,102758.36
2019-04-11T07:35:15.744Z,102762.44
2019-04-11T07:37:47.378Z,102767.59
2019-04-11T07:40:35.243Z,102764.01
2019-04-11T07:43:22.565Z,102768.05
2019-04-11T07:46:15.623Z,102767.95
2019-04-11T07:48:45.034Z,102768.11
2019-04-11T07:51:40.611Z,102772.79
2019-04-11T07:54:20.594Z,102770.33
2019-04-11T07:56:54.979Z,102777.55
2019-04-11T07:59:43.078Z,102770.69
2019-04-11T08:02:31.312Z,102775.43
2019-04-11T08:05:32.357Z,102768.25
2019-04-11T08:08:21.421Z,102763.58
2019-04-11T08:11:11.497Z,102766.05
2019-04-11T08:14:00.030Z,102770.10
2019-04-11T08:17:07.254Z,102768.48
2019-04-11T08:19:55.266Z,102769.11
2019-04-11T08:22:48.135Z,102782.95
2019-04-11T08:25:39.829Z,102785.34
2019-04-11T08:28:13.641Z,102782.41
2019-04-11T08:31:01.293Z,102792.27
2019-04-11T08:33:32.892Z,102790.42
2019-04-11T08:36:15.792Z,102808.53
2019-04-11T08:38:44.910Z,102801.72
2019-04-11T08:41:33.916Z,102809.21
2019-04-11T08:44:07.787Z,102810.69
2019-04-11T08:46:42.722Z,102811.88
2019-04-11T08:49:18.331Z,102809.09
2019-04-11T08:51:47.473Z,102818.30
2019-04-11T08:54:35.544Z,102820.95
2019-04-11T08:57:04.546Z,102821.19
2019-04-11T08:59:47.563Z,102818.41
2019-04-11T09:02:39.297Z,102825.05
2019-04-11T09:05:42.981Z,102815.08
2019-04-11T09:08:26.728Z,102824.14
2019-04-11T09:11:14.963Z,102821.10
2019-04-11T09:14:09.746Z,102815.08
2019-04-11T09:17:01.777Z,102811.94
2019-04-11T09:20:05.361Z,102809.09
2019-04-11T09:22:55.387Z,102802.92
2019-04-11T09:26:02.052Z,102820.02
2019-04-11T09:28:37.578Z,102818.66
2019-04-11T09:31:41.945Z,102825.64
2019-04-11T09:34:35.675Z,102827.06
2019-04-11T09:37:20.335Z,102819.37
2019-04-11T09:40:20.881Z,102816.03
2019-04-11T09:43:09.398Z,102810.59
2019-04-11T09:45:57.767Z,102814.64
2019-04-11T09:48:51.956Z,102816.11
2019-04-11T09:51:46.158Z,102812.30
2019-04-11T09:54:37.170Z,102806.64
2019-04-11T09:57:28.953Z,102799.97
2019-04-11T10:00:26.628Z,102802.53
2019-04-11T10:03:21.035Z,102795.94
2019-04-11T10:06:19.453Z,102798.20
2019-04-11T10:08:53.203Z,102795.31
2019-04-11T10:11:54.733Z,102795.19
2019-04-11T10:14:26.594Z,102799.95
2019-04-11T10:17:14.764Z,102797.36
2019-04-11T10:19:56.385Z,102802.49
2019-04-11T10:22:43.784Z,102792.95
2019-04-11T10:25:39.312Z,102796.14
2019-04-11T10:28:27.518Z,102798.38
2019-04-11T10:31:22.769Z,102799.89
2019-04-11T10:34:11.234Z,102807.91
2019-04-11T10:37:03.538Z,102811.78
2019-04-11T10:39:54.664Z,102814.02
2019-04-11T10:42:26.616Z,102808.94
2019-04-11T10:45:31.192Z,102815.81
2019-04-11T10:48:05.525Z,102819.51
2019-04-11T10:50:52.762Z,102814.80
2019-04-11T10:53:24.930Z,102814.77
2019-04-11T10:56:13.910Z,102813.44
2019-04-11T10:58:49.086Z,102809.61
2019-04-11T11:01:36.441Z,102814.42
2019-04-11T11:04:10.031Z,102814.27
2019-04-11T11:06:39.911Z,102816.72
2019-04-11T11:09:37.222Z,102816.28
2019-04-11T11:12:25.880Z,102820.90
2019-04-11T11:15:25.942Z,102812.34
2019-04-11T11:18:59.745Z,102808.36
2019-04-11T11:20:58.778Z,102812.55
2019-04-11T11:23:44.864Z,102819.61
2019-04-11T11:26:33.846Z,102811.01
2019-04-11T11:29:13.638Z,102819.73
2019-04-11T11:32:02.899Z,102819.03
2019-04-11T11:34:39.344Z,102816.11
2019-04-11T11:37:42.669Z,102813.61
2019-04-11T11:40:29.995Z,102812.23
2019-04-11T11:43:27.547Z,102820.55
2019-04-11T11:46:25.723Z,102814.06
2019-04-11T11:49:00.730Z,102812.11
2019-04-11T11:51:35.367Z,102797.35
2019-04-11T11:54:13.688Z,102800.91
2019-04-11T11:56:44.349Z,102800.21
2019-04-11T11:59:27.374Z,102806.08
2019-04-11T12:02:00.694Z,102820.91
2019-04-11T12:04:56.027Z,102828.72
2019-04-11T12:07:33.754Z,102836.20
2019-04-11T12:10:33.632Z,102843.00
2019-04-11T12:13:26.708Z,102857.53
2019-04-11T12:16:05.815Z,102855.62
2019-04-11T12:18:49.812Z,102858.31
2019-04-11T12:21:24.254Z,102860.30
2019-04-11T12:24:13.367Z,102860.86
2019-04-11T12:26:50.239Z,102858.31
2019-04-11T12:29:45.566Z,102852.33
2019-04-11T12:32:14.812Z,102855.11
2019-04-11T12:35:08.858Z,102845.35
2019-04-11T12:37:43.371Z,102838.33
2019-04-11T12:40:49.555Z,102840.27
2019-04-11T12:43:18.611Z,102836.70
2019-04-11T12:46:12.841Z,102851.75
2019-04-11T12:48:45.566Z,102857.51
2019-04-11T12:51:34.376Z,102859.78
2019-04-11T12:54:03.404Z,102858.83
2019-04-11T12:56:50.064Z,102862.39
2019-04-11T12:59:25.776Z,102850.13
2019-04-11T13:02:12.863Z,102858.09
2019-04-11T13:04:45.034Z,102857.02
2019-04-11T13:07:33.340Z,102857.88
2019-04-11T13:10:39.192Z,102859.59
2019-04-11T13:13:36.121Z,102848.70
2019-04-11T13:16:13.235Z,102850.92
2019-04-11T13:19:04.054Z,102848.78
2019-04-11T13:21:41.721Z,102830.66
2019-04-11T13:24:27.378Z,102840.23
2019-04-11T13:27:14.262Z,102834.71
2019-04-11T13:30:02.363Z,102830.84
2019-04-11T13:33:09.924Z,102819.26
2019-04-11T13:36:03.786Z,102830.81
2019-04-11T13:38:40.848Z,102835.17
2019-04-11T13:41:20.093Z,102828.16
2019-04-11T13:44:01.366Z,102823.84
2019-04-11T13:46:49.694Z,102824.88
2019-04-11T13:49:37.657Z,102822.01
2019-04-11T13:52:28.467Z,102829.92
2019-04-11T13:55:20.414Z,102821.13
2019-04-11T13:58:08.530Z,102828.52
2019-04-11T14:00:40.643Z,102837.41
2019-04-11T14:03:43.878Z,102834.05
2019-04-11T14:06:27.772Z,102838.58
2019-04-11T14:09:24.991Z,102828.83
2019-04-11T14:12:04.729Z,102829.30
2019-04-11T14:14:54.648Z,102824.19
2019-04-11T14:17:42.487Z,102816.44
2019-04-11T14:20:42.113Z,102810.69
2019-04-11T14:23:33.053Z,102803.51
2019-04-11T14:26:28.976Z,102806.15
2019-04-11T14:29:22.161Z,102807.76
2019-04-11T14:32:09.473Z,102807.45
2019-04-11T14:34:57.481Z,102797.33
2019-04-11T14:37:38.577Z,102784.94
2019-04-11T14:40:12.302Z,102791.23
2019-04-11T14:43:03.416Z,102794.79
2019-04-11T14:45:57.731Z,102796.61
2019-04-11T14:48:40.105Z,102789.38
2019-04-11T14:51:26.910Z,102791.92
2019-04-11T14:54:05.430Z,102789.30
2019-04-11T14:56:35.078Z,102786.70
2019-04-11T14:59:32.230Z,102792.42
2019-04-11T15:02:08.708Z,102791.39
2019-04-11T15:04:55.357Z,102791.30
2019-04-11T15:07:24.369Z,102789.27
2019-04-11T15:10:01.514Z,102790.59
2019-04-11T15:12:32.491Z,102792.95
2019-04-11T15:15:23.271Z,102800.48
2019-04-11T15:17:57.922Z,102798.62
2019-04-11T15:20:54.240Z,102806.98
2019-04-11T15:23:17.205Z,102811.42
2019-04-11T15:26:08.714Z,102799.80
2019-04-11T15:28:53.178Z,102792.63
2019-04-11T15:31:39.332Z,102798.25
2019-04-11T15:34:22.954Z,102788.94
2019-04-11T15:37:10.606Z,102790.93
2019-04-11T15:40:03.911Z,102789.22
2019-04-11T15:42:44.678Z,102782.31
2019-04-11T15:45:31.541Z,102774.70
2019-04-11T15:48:23.436Z,102776.86
2019-04-11T15:51:23.477Z,102773.98
2019-04-11T15:54:17.389Z,102781.58
2019-04-11T15:56:49.736Z,102779.52
2019-04-11T15:59:44.047Z,102777.33
2019-04-11T16:02:24.186Z,102781.31
2019-04-11T16:05:31.766Z,102778.30
2019-04-11T16:08:18.798Z,102783.33
2019-04-11T16:11:07.206Z,102777.03
2019-04-11T16:13:49.332Z,102782.41
2019-04-11T16:16:19.515Z,102801.52
2019-04-11T16:19:22.889Z,102815.88
2019-04-11T16:22:17.217Z,102815.43
2019-04-11T16:24:46.949Z,102815.64
2019-04-11T16:27:40.981Z,102811.36
2019-04-11T16:30:10.984Z,102812.73
2019-04-11T16:32:43.109Z,102822.42
2019-04-11T16:35:23.811Z,102813.55
2019-04-11T16:38:00.593Z,102814.72
2019-04-11T16:40:43.302Z,102807.84
2019-04-11T16:43:12.313Z,102817.18
2019-04-11T16:45:59.280Z,102821.41
2019-04-11T16:48:28.296Z,102816.45
2019-04-11T16:50:57.278Z,102811.86
2019-04-11T16:53:26.291Z,102816.45
2019-04-11T16:55:55.347Z,102811.23
2019-04-11T16:58:24.367Z,102819.42
2019-04-11T17:00:53.479Z,102814.22
2019-04-11T17:03:25.071Z,102823.19
2019-04-11T17:06:12.658Z,102820.81
2019-04-11T17:08:46.492Z,102823.61
2019-04-11T17:11:18.996Z,102835.41
2019-04-11T17:13:48.234Z,102827.81
2019-04-11T17:16:18.921Z,102823.57
2019-04-11T17:18:47.935Z,102824.39
2019-04-11T17:21:16.994Z,102833.55
2019-04-11T17:23:47.139Z,102837.94
2019-04-11T17:26:16.787Z,102836.59
2019-04-11T17:28:45.882Z,102846.41
2019-04-11T17:31:14.823Z,102845.23
2019-04-11T17:33:44.192Z,102860.00
2019-04-11T17:36:13.425Z,102850.37
2019-04-11T17:38:42.441Z,102858.11
2019-04-11T17:41:14.286Z,102858.16
2019-04-11T17:43:46.772Z,102850.81
2019-04-11T17:46:14.205Z,102839.72
2019-04-11T17:48:43.250Z,102847.31
2019-04-11T17:51:12.306Z,102844.48
2019-04-11T17:53:41.310Z,102835.84
2019-04-11T17:56:10.324Z,102840.20
2019-04-11T17:58:40.529Z,102838.90
2019-04-11T18:01:12.047Z,102842.09
2019-04-11T18:03:42.105Z,102849.64
2019-04-11T18:06:11.753Z,102842.46
2019-04-11T18:08:40.796Z,102845.89
2019-04-11T18:11:11.485Z,102850.58
2019-04-11T18:13:40.454Z,102853.07
2019-04-11T18:16:09.496Z,102858.58
2019-04-11T18:18:38.553Z,102864.75
2019-04-11T18:21:08.022Z,102857.94
2019-04-11T18:23:37.142Z,102861.56
2019-04-11T18:26:07.266Z,102865.89
2019-04-11T18:28:36.288Z,102870.42
2019-04-11T18:31:05.291Z,102869.52
2019-04-11T18:33:34.345Z,102873.69
2019-04-11T18:36:03.894Z,102863.85
2019-04-11T18:38:32.963Z,102870.09
2019-04-11T18:41:02.101Z,102875.69
2019-04-11T18:43:31.133Z,102875.64
2019-04-11T18:46:00.411Z,102875.84
2019-04-11T18:48:29.843Z,102875.84
2019-04-11T18:50:58.851Z,102881.73
2019-04-11T18:53:27.856Z,102883.44
2019-04-11T18:55:56.924Z,102884.25
2019-04-11T18:58:26.261Z,102884.70
2019-04-11T19:00:55.303Z,102878.38
2019-04-11T19:03:35.458Z,102879.81
2019-04-11T19:05:55.098Z,102879.28
2019-04-11T19:08:24.208Z,102885.52
2019-04-11T19:10:53.240Z,102884.66
2019-04-11T19:13:22.274Z,102885.89
2019-04-11T19:15:51.304Z,102888.01
2019-04-11T19:18:21.056Z,102887.11
2019-04-11T19:20:50.877Z,102890.41
2019-04-11T19:23:19.938Z,102899.80
2019-04-11T19:25:48.945Z,102892.98
2019-04-11T19:28:18.003Z,102891.72
2019-04-11T19:30:47.121Z,102890.95
2019-04-11T19:33:16.150Z,102886.42
2019-04-11T19:35:45.165Z,102885.16
2019-04-11T19:38:28.542Z,102892.86
2019-04-11T19:40:57.606Z,102885.31
2019-04-11T19:43:26.643Z,102894.17
2019-04-11T19:45:58.552Z,102883.77
2019-04-11T19:48:27.045Z,102883.69
2019-04-11T19:50:58.605Z,102887.03
2019-04-11T19:53:26.899Z,102880.13
2019-04-11T19:56:08.450Z,102884.70
2019-04-11T19:58:37.468Z,102892.83
2019-04-11T20:01:06.490Z,102891.56
2019-04-11T20:03:35.540Z,102890.34
2019-04-11T20:06:04.557Z,102889.44
2019-04-11T20:08:33.598Z,102898.13
2019-04-11T20:11:03.025Z,102896.73
2019-04-11T20:13:32.826Z,102900.13
2019-04-11T20:16:01.927Z,102902.16
2019-04-11T20:18:30.989Z,102903.34
2019-04-11T20:21:00.062Z,102901.46
2019-04-11T20:23:29.150Z,102905.88
2019-04-11T20:25:58.227Z,102899.59
2019-04-11T20:28:27.468Z,102905.51
2019-04-11T20:30:56.381Z,102908.04
2019-04-11T20:33:27.275Z,102908.20
2019-04-11T20:35:56.219Z,102913.39
2019-04-11T20:38:25.233Z,102915.23
2019-04-11T20:40:54.249Z,102916.17
2019-04-11T20:43:25.489Z,102908.25
2019-04-11T20:45:54.347Z,102911.31
2019-04-11T20:48:23.281Z,102910.45
2019-04-11T20:50:52.338Z,102913.03
2019-04-11T20:53:21.353Z,102906.30
2019-04-11T20:55:50.359Z,102911.40
2019-04-11T20:58:27.078Z,102911.84
2019-04-11T21:00:55.535Z,102910.62
2019-04-11T21:03:20.785Z,102910.66
2019-04-11T21:05:49.843Z,102912.74
2019-04-11T21:08:18.846Z,102910.66
2019-04-11T21:10:47.781Z,102907.72
2019-04-11T21:13:16.842Z,102911.92
2019-04-11T21:15:45.849Z,102914.91
2019-04-11T21:18:14.857Z,102910.66
2019-04-11T21:20:43.919Z,102916.95
2019-04-11T21:23:23.780Z,102910.62
2019-04-11T21:25:43.744Z,102916.95
2019-04-11T21:28:12.802Z,102921.16
2019-04-11T21:30:41.809Z,102910.58
2019-04-11T21:33:10.812Z,102914.83
2019-04-11T21:35:39.869Z,102910.54
2019-04-11T21:38:08.935Z,102916.87
2019-04-11T21:40:37.948Z,102918.09
2019-04-11T21:43:06.998Z,102915.48
2019-04-11T21:45:36.597Z,102918.05
2019-04-11T21:48:06.892Z,102910.50
2019-04-11T21:50:40.249Z,102911.31
2019-04-11T21:53:07.221Z,102913.39
2019-04-11T21:55:36.448Z,102908.34
2019-04-11T21:58:05.501Z,102913.03
2019-04-11T22:00:44.274Z,102903.72
2019-04-11T22:03:13.327Z,102907.97
2019-04-11T22:05:42.438Z,102906.78
2019-04-11T22:08:11.824Z,102917.36
2019-04-11T22:10:41.066Z,102924.45
2019-04-11T22:13:10.823Z,102919.92
2019-04-11T22:15:42.447Z,102921.23
2019-04-11T22:18:15.653Z,102917.44
2019-04-11T22:20:42.222Z,102928.37
2019-04-11T22:23:11.282Z,102928.83
2019-04-11T22:25:40.214Z,102929.11
2019-04-11T22:28:09.253Z,102935.36
2019-04-11T22:30:38.316Z,102931.27
2019-04-11T22:33:28.315Z,102934.01
2019-04-11T22:35:59.394Z,102939.27
2019-04-11T22:38:30.497Z,102923.21
2019-04-11T22:41:01.508Z,102917.38
2019-04-11T22:43:30.233Z,102914.81
2019-04-11T22:45:59.244Z,102920.14
2019-04-11T22:48:28.291Z,102922.80
2019-04-11T22:50:57.306Z,102917.87
2019-04-11T22:53:26.697Z,102925.22
2019-04-11T22:55:55.763Z,102936.64
2019-04-11T22:58:24.782Z,102934.63
2019-04-11T23:00:54.159Z,102940.94
2019-04-11T23:03:27.543Z,102940.78
2019-04-11T23:05:56.550Z,102938.47
2019-04-11T23:08:25.911Z,102939.83
2019-04-11T23:10:54.936Z,102935.13
2019-04-11T23:13:23.942Z,102939.88
2019-04-11T23:15:52.995Z,102942.20
2019-04-11T23:18:22.024Z,102951.23
2019-04-11T23:20:51.029Z,102959.13
2019-04-11T23:23:20.064Z,102956.29
2019-04-11T23:25:49.112Z,102950.17
2019-04-11T23:28:18.121Z,102955.37
2019-04-11T23:30:50.365Z,102959.02
2019-04-11T23:33:18.952Z,102955.73
2019-04-11T23:35:50.990Z,102960.58
2019-04-11T23:38:23.552Z,102961.09
2019-04-11T23:40:51.201Z,102960.12
2019-04-11T23:43:20.895Z,102958.31
2019-04-11T23:45:51.181Z,102958.92
2019-04-11T23:48:23.742Z,102964.58
2019-04-11T23:50:54.774Z,102961.34
2019-04-11T23:53:22.728Z,102956.63
2019-04-11T23:55:51.909Z,102960.28
2019-04-11T23:58:20.969Z,102961.89
